sensor_id;sensor_type;location;lat;lon;timestamp;P1;durP1;ratioP1;P2;durP2;ratioP2
55915;SDS011;41826;53.246;-6.670;2022-07-25T00:01:13;3.90;;;1.52;;
55915;SDS011;41826;53.246;-6.670;2022-07-25T00:03:39;2.50;;;1.60;;
55915;SDS011;41826;53.246;-6.670;2022-07-25T00:06:04;3.15;;;1.48;;
55915;SDS011;41826;53.246;-6.670;2022-07-25T00:08:30;3.90;;;1.30;;
55915;SDS011;41826;53.246;-6.670;2022-07-25T00:10:56;6.10;;;1.50;;
55915;SDS011;41826;53.246;-6.670;2022-07-25T00:13:21;2.50;;;1.40;;
55915;SDS011;41826;53.246;-6.670;2022-07-25T00:15:46;4.63;;;1.40;;
55915;SDS011;41826;53.246;-6.670;2022-07-25T00:18:12;4.72;;;1.30;;
55915;SDS011;41826;53.246;-6.670;2022-07-25T00:20:37;1.40;;;1.30;;
55915;SDS011;41826;53.246;-6.670;2022-07-25T00:23:03;2.65;;;1.30;;
55915;SDS011;41826;53.246;-6.670;2022-07-25T00:25:28;3.95;;;1.58;;
55915;SDS011;41826;53.246;-6.670;2022-07-25T00:27:53;3.17;;;1.33;;
55915;SDS011;41826;53.246;-6.670;2022-07-25T00:30:19;2.45;;;1.50;;
55915;SDS011;41826;53.246;-6.670;2022-07-25T00:32:44;1.30;;;1.20;;
55915;SDS011;41826;53.246;-6.670;2022-07-25T00:35:10;2.25;;;1.30;;
55915;SDS011;41826;53.246;-6.670;2022-07-25T00:37:36;2.05;;;1.35;;
55915;SDS011;41826;53.246;-6.670;2022-07-25T00:40:01;2.00;;;1.35;;
55915;SDS011;41826;53.246;-6.670;2022-07-25T00:42:27;5.45;;;1.77;;
55915;SDS011;41826;53.246;-6.670;2022-07-25T00:44:53;7.85;;;1.38;;
55915;SDS011;41826;53.246;-6.670;2022-07-25T00:47:18;3.42;;;1.52;;
55915;SDS011;41826;53.246;-6.670;2022-07-25T00:49:44;4.38;;;1.25;;
55915;SDS011;41826;53.246;-6.670;2022-07-25T00:52:09;3.63;;;1.20;;
55915;SDS011;41826;53.246;-6.670;2022-07-25T00:54:35;5.35;;;2.17;;
55915;SDS011;41826;53.246;-6.670;2022-07-25T00:57:00;1.95;;;1.13;;
55915;SDS011;41826;53.246;-6.670;2022-07-25T00:59:26;4.43;;;1.20;;
55915;SDS011;41826;53.246;-6.670;2022-07-25T01:01:51;2.05;;;1.25;;
55915;SDS011;41826;53.246;-6.670;2022-07-25T01:04:17;3.03;;;1.33;;
55915;SDS011;41826;53.246;-6.670;2022-07-25T01:06:42;3.60;;;1.52;;
55915;SDS011;41826;53.246;-6.670;2022-07-25T01:09:08;2.65;;;1.30;;
55915;SDS011;41826;53.246;-6.670;2022-07-25T01:11:34;1.80;;;1.30;;
55915;SDS011;41826;53.246;-6.670;2022-07-25T01:13:59;1.77;;;1.33;;
55915;SDS011;41826;53.246;-6.670;2022-07-25T01:16:25;2.00;;;1.40;;
55915;SDS011;41826;53.246;-6.670;2022-07-25T01:18:51;1.52;;;1.38;;
55915;SDS011;41826;53.246;-6.670;2022-07-25T01:21:16;1.35;;;1.25;;
55915;SDS011;41826;53.246;-6.670;2022-07-25T01:23:42;3.58;;;1.17;;
55915;SDS011;41826;53.246;-6.670;2022-07-25T01:26:07;2.30;;;1.35;;
55915;SDS011;41826;53.246;-6.670;2022-07-25T01:28:32;1.85;;;1.30;;
55915;SDS011;41826;53.246;-6.670;2022-07-25T01:30:58;3.47;;;1.67;;
55915;SDS011;41826;53.246;-6.670;2022-07-25T01:33:24;1.75;;;1.20;;
55915;SDS011;41826;53.246;-6.670;2022-07-25T01:35:49;4.72;;;1.25;;
55915;SDS011;41826;53.246;-6.670;2022-07-25T01:38:15;1.65;;;1.02;;
55915;SDS011;41826;53.246;-6.670;2022-07-25T01:40:41;3.38;;;1.42;;
55915;SDS011;41826;53.246;-6.670;2022-07-25T01:43:10;1.45;;;1.00;;
55915;SDS011;41826;53.246;-6.670;2022-07-25T01:45:36;1.17;;;1.00;;
55915;SDS011;41826;53.246;-6.670;2022-07-25T01:48:02;1.50;;;1.00;;
55915;SDS011;41826;53.246;-6.670;2022-07-25T01:50:28;1.33;;;1.00;;
55915;SDS011;41826;53.246;-6.670;2022-07-25T01:52:56;8.98;;;1.88;;
55915;SDS011;41826;53.246;-6.670;2022-07-25T01:55:22;2.67;;;1.10;;
55915;SDS011;41826;53.246;-6.670;2022-07-25T01:57:47;1.77;;;1.00;;
55915;SDS011;41826;53.246;-6.670;2022-07-25T02:00:13;1.40;;;1.27;;
55915;SDS011;41826;53.246;-6.670;2022-07-25T02:02:40;2.20;;;0.90;;
55915;SDS011;41826;53.246;-6.670;2022-07-25T02:05:07;4.03;;;1.35;;
55915;SDS011;41826;53.246;-6.670;2022-07-25T02:07:34;2.83;;;1.17;;
55915;SDS011;41826;53.246;-6.670;2022-07-25T02:10:00;2.85;;;0.88;;
55915;SDS011;41826;53.246;-6.670;2022-07-25T02:12:25;1.95;;;1.10;;
55915;SDS011;41826;53.246;-6.670;2022-07-25T02:14:51;2.28;;;1.33;;
55915;SDS011;41826;53.246;-6.670;2022-07-25T02:17:16;1.42;;;1.27;;
55915;SDS011;41826;53.246;-6.670;2022-07-25T02:19:42;1.35;;;0.80;;
55915;SDS011;41826;53.246;-6.670;2022-07-25T02:22:08;1.30;;;1.20;;
55915;SDS011;41826;53.246;-6.670;2022-07-25T02:24:34;1.63;;;1.00;;
55915;SDS011;41826;53.246;-6.670;2022-07-25T02:27:01;4.03;;;1.17;;
55915;SDS011;41826;53.246;-6.670;2022-07-25T02:29:27;2.70;;;1.00;;
55915;SDS011;41826;53.246;-6.670;2022-07-25T02:31:52;0.90;;;0.90;;
55915;SDS011;41826;53.246;-6.670;2022-07-25T02:34:18;2.50;;;0.90;;
55915;SDS011;41826;53.246;-6.670;2022-07-25T02:37:04;1.08;;;0.95;;
55915;SDS011;41826;53.246;-6.670;2022-07-25T02:39:29;1.48;;;1.02;;
55915;SDS011;41826;53.246;-6.670;2022-07-25T02:41:55;1.67;;;1.08;;
55915;SDS011;41826;53.246;-6.670;2022-07-25T02:44:20;1.00;;;1.00;;
55915;SDS011;41826;53.246;-6.670;2022-07-25T02:46:45;1.60;;;1.17;;
55915;SDS011;41826;53.246;-6.670;2022-07-25T02:49:11;1.45;;;1.02;;
55915;SDS011;41826;53.246;-6.670;2022-07-25T02:51:46;1.20;;;0.90;;
55915;SDS011;41826;53.246;-6.670;2022-07-25T02:54:11;1.20;;;1.00;;
55915;SDS011;41826;53.246;-6.670;2022-07-25T02:56:37;1.92;;;1.00;;
55915;SDS011;41826;53.246;-6.670;2022-07-25T02:59:02;1.60;;;1.13;;
55915;SDS011;41826;53.246;-6.670;2022-07-25T03:01:28;3.53;;;0.90;;
55915;SDS011;41826;53.246;-6.670;2022-07-25T03:03:53;1.05;;;0.85;;
55915;SDS011;41826;53.246;-6.670;2022-07-25T03:06:19;2.53;;;1.00;;
55915;SDS011;41826;53.246;-6.670;2022-07-25T03:08:44;1.30;;;0.95;;
55915;SDS011;41826;53.246;-6.670;2022-07-25T03:11:10;2.15;;;0.80;;
55915;SDS011;41826;53.246;-6.670;2022-07-25T03:13:36;1.00;;;0.90;;
55915;SDS011;41826;53.246;-6.670;2022-07-25T03:16:01;1.90;;;1.00;;
55915;SDS011;41826;53.246;-6.670;2022-07-25T03:18:27;1.42;;;0.90;;
55915;SDS011;41826;53.246;-6.670;2022-07-25T03:20:52;3.85;;;0.98;;
55915;SDS011;41826;53.246;-6.670;2022-07-25T03:23:17;1.20;;;0.80;;
55915;SDS011;41826;53.246;-6.670;2022-07-25T03:25:43;1.02;;;0.95;;
55915;SDS011;41826;53.246;-6.670;2022-07-25T03:28:08;4.40;;;1.40;;
55915;SDS011;41826;53.246;-6.670;2022-07-25T03:30:34;1.98;;;0.82;;
55915;SDS011;41826;53.246;-6.670;2022-07-25T03:32:59;1.45;;;0.80;;
55915;SDS011;41826;53.246;-6.670;2022-07-25T03:35:25;1.30;;;1.10;;
55915;SDS011;41826;53.246;-6.670;2022-07-25T03:37:50;1.83;;;1.10;;
55915;SDS011;41826;53.246;-6.670;2022-07-25T03:40:16;0.80;;;0.80;;
55915;SDS011;41826;53.246;-6.670;2022-07-25T03:42:41;3.10;;;1.23;;
55915;SDS011;41826;53.246;-6.670;2022-07-25T03:45:08;1.25;;;1.02;;
55915;SDS011;41826;53.246;-6.670;2022-07-25T03:47:33;1.73;;;1.38;;
55915;SDS011;41826;53.246;-6.670;2022-07-25T03:49:59;1.45;;;1.10;;
55915;SDS011;41826;53.246;-6.670;2022-07-25T03:52:24;1.77;;;1.15;;
55915;SDS011;41826;53.246;-6.670;2022-07-25T03:54:50;3.20;;;1.00;;
55915;SDS011;41826;53.246;-6.670;2022-07-25T03:57:15;1.58;;;1.02;;
55915;SDS011;41826;53.246;-6.670;2022-07-25T03:59:40;1.35;;;0.90;;
55915;SDS011;41826;53.246;-6.670;2022-07-25T04:02:06;3.13;;;1.00;;
55915;SDS011;41826;53.246;-6.670;2022-07-25T04:04:31;1.98;;;1.13;;
55915;SDS011;41826;53.246;-6.670;2022-07-25T04:06:57;1.20;;;1.10;;
55915;SDS011;41826;53.246;-6.670;2022-07-25T04:09:23;1.05;;;0.90;;
55915;SDS011;41826;53.246;-6.670;2022-07-25T04:11:48;2.45;;;1.00;;
55915;SDS011;41826;53.246;-6.670;2022-07-25T04:14:13;0.90;;;0.80;;
55915;SDS011;41826;53.246;-6.670;2022-07-25T04:16:39;1.08;;;0.88;;
55915;SDS011;41826;53.246;-6.670;2022-07-25T04:19:05;1.05;;;0.70;;
55915;SDS011;41826;53.246;-6.670;2022-07-25T04:21:31;0.80;;;0.80;;
55915;SDS011;41826;53.246;-6.670;2022-07-25T04:23:56;1.83;;;1.10;;
55915;SDS011;41826;53.246;-6.670;2022-07-25T04:26:21;1.50;;;1.05;;
55915;SDS011;41826;53.246;-6.670;2022-07-25T04:28:47;1.27;;;0.93;;
55915;SDS011;41826;53.246;-6.670;2022-07-25T04:31:13;1.52;;;1.10;;
55915;SDS011;41826;53.246;-6.670;2022-07-25T04:33:42;1.20;;;1.10;;
55915;SDS011;41826;53.246;-6.670;2022-07-25T04:36:07;1.45;;;1.20;;
55915;SDS011;41826;53.246;-6.670;2022-07-25T04:38:33;1.30;;;0.85;;
55915;SDS011;41826;53.246;-6.670;2022-07-25T04:41:02;1.10;;;1.05;;
55915;SDS011;41826;53.246;-6.670;2022-07-25T04:43:29;1.05;;;0.95;;
55915;SDS011;41826;53.246;-6.670;2022-07-25T04:45:57;0.93;;;0.80;;
55915;SDS011;41826;53.246;-6.670;2022-07-25T04:48:23;2.35;;;1.25;;
55915;SDS011;41826;53.246;-6.670;2022-07-25T04:51:01;1.98;;;1.17;;
55915;SDS011;41826;53.246;-6.670;2022-07-25T04:53:26;1.15;;;1.05;;
55915;SDS011;41826;53.246;-6.670;2022-07-25T04:55:52;1.00;;;0.90;;
55915;SDS011;41826;53.246;-6.670;2022-07-25T04:58:17;0.80;;;0.80;;
55915;SDS011;41826;53.246;-6.670;2022-07-25T05:00:46;3.75;;;1.08;;
55915;SDS011;41826;53.246;-6.670;2022-07-25T05:03:11;1.00;;;0.90;;
55915;SDS011;41826;53.246;-6.670;2022-07-25T05:06:10;1.83;;;0.77;;
55915;SDS011;41826;53.246;-6.670;2022-07-25T05:08:28;4.20;;;0.80;;
55915;SDS011;41826;53.246;-6.670;2022-07-25T05:11:01;1.33;;;0.90;;
55915;SDS011;41826;53.246;-6.670;2022-07-25T05:13:26;1.65;;;0.80;;
55915;SDS011;41826;53.246;-6.670;2022-07-25T05:15:52;0.90;;;0.90;;
55915;SDS011;41826;53.246;-6.670;2022-07-25T05:18:17;2.67;;;1.05;;
55915;SDS011;41826;53.246;-6.670;2022-07-25T05:20:48;2.00;;;0.70;;
55915;SDS011;41826;53.246;-6.670;2022-07-25T05:23:14;1.20;;;0.80;;
55915;SDS011;41826;53.246;-6.670;2022-07-25T05:25:39;1.85;;;0.80;;
55915;SDS011;41826;53.246;-6.670;2022-07-25T05:28:04;1.23;;;0.93;;
55915;SDS011;41826;53.246;-6.670;2022-07-25T05:30:30;1.48;;;0.63;;
55915;SDS011;41826;53.246;-6.670;2022-07-25T05:32:55;0.82;;;0.70;;
55915;SDS011;41826;53.246;-6.670;2022-07-25T05:35:21;2.50;;;0.70;;
55915;SDS011;41826;53.246;-6.670;2022-07-25T05:37:46;0.60;;;0.60;;
55915;SDS011;41826;53.246;-6.670;2022-07-25T05:40:12;0.75;;;0.75;;
55915;SDS011;41826;53.246;-6.670;2022-07-25T05:42:37;0.60;;;0.57;;
55915;SDS011;41826;53.246;-6.670;2022-07-25T05:45:03;0.77;;;0.57;;
55915;SDS011;41826;53.246;-6.670;2022-07-25T05:47:29;0.68;;;0.68;;
55915;SDS011;41826;53.246;-6.670;2022-07-25T05:49:54;1.67;;;0.60;;
55915;SDS011;41826;53.246;-6.670;2022-07-25T05:52:21;1.25;;;0.60;;
55915;SDS011;41826;53.246;-6.670;2022-07-25T05:54:46;0.60;;;0.50;;
55915;SDS011;41826;53.246;-6.670;2022-07-25T05:57:12;0.40;;;0.40;;
55915;SDS011;41826;53.246;-6.670;2022-07-25T05:59:37;1.95;;;0.30;;
55915;SDS011;41826;53.246;-6.670;2022-07-25T06:02:03;2.08;;;0.50;;
55915;SDS011;41826;53.246;-6.670;2022-07-25T06:04:28;0.55;;;0.50;;
55915;SDS011;41826;53.246;-6.670;2022-07-25T06:06:57;0.55;;;0.40;;
55915;SDS011;41826;53.246;-6.670;2022-07-25T06:09:25;0.40;;;0.30;;
55915;SDS011;41826;53.246;-6.670;2022-07-25T06:11:56;0.30;;;0.30;;
55915;SDS011;41826;53.246;-6.670;2022-07-25T06:14:21;0.55;;;0.55;;
55915;SDS011;41826;53.246;-6.670;2022-07-25T06:16:47;2.42;;;0.70;;
55915;SDS011;41826;53.246;-6.670;2022-07-25T06:19:13;1.60;;;0.50;;
55915;SDS011;41826;53.246;-6.670;2022-07-25T06:21:39;2.90;;;0.40;;
55915;SDS011;41826;53.246;-6.670;2022-07-25T06:24:04;0.55;;;0.40;;
55915;SDS011;41826;53.246;-6.670;2022-07-25T06:26:30;1.55;;;0.43;;
55915;SDS011;41826;53.246;-6.670;2022-07-25T06:28:55;2.83;;;0.45;;
55915;SDS011;41826;53.246;-6.670;2022-07-25T06:31:24;2.13;;;1.00;;
55915;SDS011;41826;53.246;-6.670;2022-07-25T06:33:49;3.90;;;0.47;;
55915;SDS011;41826;53.246;-6.670;2022-07-25T06:36:15;1.58;;;0.60;;
55915;SDS011;41826;53.246;-6.670;2022-07-25T06:38:40;1.80;;;0.60;;
55915;SDS011;41826;53.246;-6.670;2022-07-25T06:41:06;0.85;;;0.50;;
55915;SDS011;41826;53.246;-6.670;2022-07-25T06:43:31;2.10;;;0.60;;
55915;SDS011;41826;53.246;-6.670;2022-07-25T06:45:57;2.50;;;0.43;;
55915;SDS011;41826;53.246;-6.670;2022-07-25T06:48:22;1.67;;;0.68;;
55915;SDS011;41826;53.246;-6.670;2022-07-25T06:50:48;1.75;;;0.63;;
55915;SDS011;41826;53.246;-6.670;2022-07-25T06:53:14;0.60;;;0.50;;
55915;SDS011;41826;53.246;-6.670;2022-07-25T06:55:40;0.80;;;0.40;;
55915;SDS011;41826;53.246;-6.670;2022-07-25T06:58:05;0.85;;;0.43;;
55915;SDS011;41826;53.246;-6.670;2022-07-25T07:00:31;1.02;;;0.43;;
55915;SDS011;41826;53.246;-6.670;2022-07-25T07:02:57;0.55;;;0.30;;
55915;SDS011;41826;53.246;-6.670;2022-07-25T07:05:25;1.70;;;0.40;;
55915;SDS011;41826;53.246;-6.670;2022-07-25T07:07:53;0.60;;;0.32;;
55915;SDS011;41826;53.246;-6.670;2022-07-25T07:10:18;0.40;;;0.30;;
55915;SDS011;41826;53.246;-6.670;2022-07-25T07:12:44;0.65;;;0.40;;
55915;SDS011;41826;53.246;-6.670;2022-07-25T07:15:10;1.02;;;0.57;;
55915;SDS011;41826;53.246;-6.670;2022-07-25T07:17:36;0.52;;;0.40;;
55915;SDS011;41826;53.246;-6.670;2022-07-25T07:20:03;1.27;;;0.52;;
55915;SDS011;41826;53.246;-6.670;2022-07-25T07:22:30;0.50;;;0.40;;
55915;SDS011;41826;53.246;-6.670;2022-07-25T07:24:55;0.55;;;0.50;;
55915;SDS011;41826;53.246;-6.670;2022-07-25T07:27:21;0.70;;;0.40;;
55915;SDS011;41826;53.246;-6.670;2022-07-25T07:29:48;1.27;;;0.30;;
55915;SDS011;41826;53.246;-6.670;2022-07-25T07:32:14;0.45;;;0.30;;
55915;SDS011;41826;53.246;-6.670;2022-07-25T07:34:40;0.93;;;0.40;;
55915;SDS011;41826;53.246;-6.670;2022-07-25T07:37:05;0.47;;;0.47;;
55915;SDS011;41826;53.246;-6.670;2022-07-25T07:39:31;1.88;;;0.63;;
55915;SDS011;41826;53.246;-6.670;2022-07-25T07:41:56;0.68;;;0.47;;
55915;SDS011;41826;53.246;-6.670;2022-07-25T07:44:22;1.10;;;0.30;;
55915;SDS011;41826;53.246;-6.670;2022-07-25T07:46:47;1.30;;;0.38;;
55915;SDS011;41826;53.246;-6.670;2022-07-25T07:49:12;0.30;;;0.30;;
55915;SDS011;41826;53.246;-6.670;2022-07-25T07:51:38;0.77;;;0.30;;
55915;SDS011;41826;53.246;-6.670;2022-07-25T07:54:03;1.17;;;0.40;;
55915;SDS011;41826;53.246;-6.670;2022-07-25T07:56:48;0.40;;;0.38;;
55915;SDS011;41826;53.246;-6.670;2022-07-25T07:59:13;0.95;;;0.40;;
55915;SDS011;41826;53.246;-6.670;2022-07-25T08:01:38;1.27;;;0.32;;
55915;SDS011;41826;53.246;-6.670;2022-07-25T08:04:04;2.95;;;0.28;;
55915;SDS011;41826;53.246;-6.670;2022-07-25T08:06:29;1.50;;;0.30;;
55915;SDS011;41826;53.246;-6.670;2022-07-25T08:08:55;0.43;;;0.30;;
55915;SDS011;41826;53.246;-6.670;2022-07-25T08:11:20;1.20;;;0.30;;
55915;SDS011;41826;53.246;-6.670;2022-07-25T08:13:46;0.60;;;0.30;;
55915;SDS011;41826;53.246;-6.670;2022-07-25T08:16:11;0.65;;;0.47;;
55915;SDS011;41826;53.246;-6.670;2022-07-25T08:18:38;0.40;;;0.40;;
55915;SDS011;41826;53.246;-6.670;2022-07-25T08:21:04;1.38;;;0.20;;
55915;SDS011;41826;53.246;-6.670;2022-07-25T08:23:30;1.95;;;0.20;;
55915;SDS011;41826;53.246;-6.670;2022-07-25T08:25:59;3.15;;;0.30;;
55915;SDS011;41826;53.246;-6.670;2022-07-25T08:28:26;0.77;;;0.30;;
55915;SDS011;41826;53.246;-6.670;2022-07-25T08:30:52;2.25;;;0.45;;
55915;SDS011;41826;53.246;-6.670;2022-07-25T08:33:17;0.95;;;0.52;;
55915;SDS011;41826;53.246;-6.670;2022-07-25T08:35:50;2.28;;;0.40;;
55915;SDS011;41826;53.246;-6.670;2022-07-25T08:38:18;2.40;;;0.30;;
55915;SDS011;41826;53.246;-6.670;2022-07-25T08:40:44;2.38;;;0.40;;
55915;SDS011;41826;53.246;-6.670;2022-07-25T08:43:11;2.05;;;0.40;;
55915;SDS011;41826;53.246;-6.670;2022-07-25T08:45:38;1.45;;;0.30;;
55915;SDS011;41826;53.246;-6.670;2022-07-25T08:48:09;2.58;;;0.47;;
55915;SDS011;41826;53.246;-6.670;2022-07-25T08:50:36;2.55;;;0.40;;
55915;SDS011;41826;53.246;-6.670;2022-07-25T08:53:02;0.90;;;0.52;;
55915;SDS011;41826;53.246;-6.670;2022-07-25T08:55:29;0.85;;;0.30;;
55915;SDS011;41826;53.246;-6.670;2022-07-25T08:57:54;0.75;;;0.25;;
55915;SDS011;41826;53.246;-6.670;2022-07-25T09:00:25;0.28;;;0.28;;
55915;SDS011;41826;53.246;-6.670;2022-07-25T09:03:00;0.20;;;0.20;;
55915;SDS011;41826;53.246;-6.670;2022-07-25T09:05:28;2.58;;;0.32;;
55915;SDS011;41826;53.246;-6.670;2022-07-25T09:07:55;0.60;;;0.32;;
55915;SDS011;41826;53.246;-6.670;2022-07-25T09:10:26;1.00;;;0.20;;
55915;SDS011;41826;53.246;-6.670;2022-07-25T09:12:57;1.20;;;0.17;;
55915;SDS011;41826;53.246;-6.670;2022-07-25T09:15:28;2.75;;;0.30;;
55915;SDS011;41826;53.246;-6.670;2022-07-25T09:17:59;0.35;;;0.22;;
55915;SDS011;41826;53.246;-6.670;2022-07-25T09:23:07;0.45;;;0.20;;
55915;SDS011;41826;53.246;-6.670;2022-07-25T09:25:34;0.32;;;0.30;;
55915;SDS011;41826;53.246;-6.670;2022-07-25T09:28:16;0.90;;;0.20;;
55915;SDS011;41826;53.246;-6.670;2022-07-25T09:30:56;0.50;;;0.30;;
55915;SDS011;41826;53.246;-6.670;2022-07-25T09:33:26;0.22;;;0.22;;
55915;SDS011;41826;53.246;-6.670;2022-07-25T09:35:52;0.70;;;0.50;;
55915;SDS011;41826;53.246;-6.670;2022-07-25T09:38:19;0.75;;;0.20;;
55915;SDS011;41826;53.246;-6.670;2022-07-25T09:40:53;0.95;;;0.20;;
55915;SDS011;41826;53.246;-6.670;2022-07-25T09:43:20;0.20;;;0.20;;
55915;SDS011;41826;53.246;-6.670;2022-07-25T09:45:50;1.65;;;0.35;;
55915;SDS011;41826;53.246;-6.670;2022-07-25T09:48:17;2.00;;;0.30;;
55915;SDS011;41826;53.246;-6.670;2022-07-25T09:50:45;0.57;;;0.30;;
55915;SDS011;41826;53.246;-6.670;2022-07-25T09:53:11;0.40;;;0.30;;
55915;SDS011;41826;53.246;-6.670;2022-07-25T09:55:36;0.20;;;0.20;;
55915;SDS011;41826;53.246;-6.670;2022-07-25T09:58:02;0.95;;;0.30;;
55915;SDS011;41826;53.246;-6.670;2022-07-25T10:00:38;1.48;;;0.30;;
55915;SDS011;41826;53.246;-6.670;2022-07-25T10:06:00;0.20;;;0.20;;
55915;SDS011;41826;53.246;-6.670;2022-07-25T10:08:34;1.40;;;0.43;;
55915;SDS011;41826;53.246;-6.670;2022-07-25T10:11:01;0.68;;;0.50;;
55915;SDS011;41826;53.246;-6.670;2022-07-25T10:13:32;1.33;;;0.50;;
55915;SDS011;41826;53.246;-6.670;2022-07-25T10:15:59;1.05;;;0.40;;
55915;SDS011;41826;53.246;-6.670;2022-07-25T10:18:26;0.30;;;0.30;;
55915;SDS011;41826;53.246;-6.670;2022-07-25T10:21:09;0.85;;;0.60;;
55915;SDS011;41826;53.246;-6.670;2022-07-25T10:23:41;1.45;;;0.30;;
55915;SDS011;41826;53.246;-6.670;2022-07-25T10:26:16;2.00;;;0.40;;
55915;SDS011;41826;53.246;-6.670;2022-07-25T10:28:47;0.85;;;0.40;;
55915;SDS011;41826;53.246;-6.670;2022-07-25T10:33:56;0.40;;;0.40;;
55915;SDS011;41826;53.246;-6.670;2022-07-25T10:36:24;0.75;;;0.43;;
55915;SDS011;41826;53.246;-6.670;2022-07-25T10:38:58;0.38;;;0.30;;
55915;SDS011;41826;53.246;-6.670;2022-07-25T10:41:25;0.98;;;0.40;;
55915;SDS011;41826;53.246;-6.670;2022-07-25T10:43:54;0.30;;;0.30;;
55915;SDS011;41826;53.246;-6.670;2022-07-25T10:46:21;0.47;;;0.30;;
55915;SDS011;41826;53.246;-6.670;2022-07-25T10:49:01;0.70;;;0.55;;
55915;SDS011;41826;53.246;-6.670;2022-07-25T10:51:35;0.68;;;0.45;;
55915;SDS011;41826;53.246;-6.670;2022-07-25T10:54:14;1.40;;;0.38;;
55915;SDS011;41826;53.246;-6.670;2022-07-25T10:56:51;0.32;;;0.32;;
55915;SDS011;41826;53.246;-6.670;2022-07-25T10:59:28;1.00;;;0.40;;
55915;SDS011;41826;53.246;-6.670;2022-07-25T11:04:27;1.27;;;0.40;;
55915;SDS011;41826;53.246;-6.670;2022-07-25T11:06:53;2.30;;;0.30;;
55915;SDS011;41826;53.246;-6.670;2022-07-25T11:09:20;2.08;;;0.73;;
55915;SDS011;41826;53.246;-6.670;2022-07-25T11:11:50;1.50;;;0.40;;
55915;SDS011;41826;53.246;-6.670;2022-07-25T11:14:18;0.93;;;0.43;;
55915;SDS011;41826;53.246;-6.670;2022-07-25T11:16:49;2.80;;;0.88;;
55915;SDS011;41826;53.246;-6.670;2022-07-25T11:19:27;0.95;;;0.38;;
55915;SDS011;41826;53.246;-6.670;2022-07-25T11:21:56;1.23;;;0.20;;
55915;SDS011;41826;53.246;-6.670;2022-07-25T11:24:40;1.60;;;0.30;;
55915;SDS011;41826;53.246;-6.670;2022-07-25T11:27:11;0.70;;;0.30;;
55915;SDS011;41826;53.246;-6.670;2022-07-25T11:29:38;1.13;;;0.45;;
55915;SDS011;41826;53.246;-6.670;2022-07-25T11:32:08;1.33;;;0.35;;
55915;SDS011;41826;53.246;-6.670;2022-07-25T11:34:38;0.73;;;0.22;;
55915;SDS011;41826;53.246;-6.670;2022-07-25T11:37:09;1.08;;;0.60;;
55915;SDS011;41826;53.246;-6.670;2022-07-25T11:39:36;1.20;;;0.40;;
55915;SDS011;41826;53.246;-6.670;2022-07-25T11:42:04;0.50;;;0.22;;
55915;SDS011;41826;53.246;-6.670;2022-07-25T11:44:40;1.15;;;0.30;;
55915;SDS011;41826;53.246;-6.670;2022-07-25T11:47:09;1.05;;;0.38;;
55915;SDS011;41826;53.246;-6.670;2022-07-25T11:49:47;0.30;;;0.30;;
55915;SDS011;41826;53.246;-6.670;2022-07-25T11:55:10;3.00;;;0.30;;
55915;SDS011;41826;53.246;-6.670;2022-07-25T11:57:42;0.30;;;0.30;;
55915;SDS011;41826;53.246;-6.670;2022-07-25T12:00:14;0.70;;;0.40;;
55915;SDS011;41826;53.246;-6.670;2022-07-25T12:02:42;1.95;;;0.30;;
55915;SDS011;41826;53.246;-6.670;2022-07-25T12:05:13;1.85;;;0.40;;
55915;SDS011;41826;53.246;-6.670;2022-07-25T12:10:11;0.52;;;0.40;;
55915;SDS011;41826;53.246;-6.670;2022-07-25T12:12:56;2.40;;;0.30;;
55915;SDS011;41826;53.246;-6.670;2022-07-25T12:15:22;1.40;;;0.40;;
55915;SDS011;41826;53.246;-6.670;2022-07-25T12:17:50;1.27;;;0.47;;
55915;SDS011;41826;53.246;-6.670;2022-07-25T12:20:17;6.43;;;2.63;;
55915;SDS011;41826;53.246;-6.670;2022-07-25T12:22:49;2.40;;;0.50;;
55915;SDS011;41826;53.246;-6.670;2022-07-25T12:25:16;5.38;;;0.52;;
55915;SDS011;41826;53.246;-6.670;2022-07-25T12:27:41;1.48;;;0.40;;
55915;SDS011;41826;53.246;-6.670;2022-07-25T12:30:07;1.65;;;0.38;;
55915;SDS011;41826;53.246;-6.670;2022-07-25T12:32:34;1.65;;;0.40;;
55915;SDS011;41826;53.246;-6.670;2022-07-25T12:35:00;1.83;;;0.55;;
55915;SDS011;41826;53.246;-6.670;2022-07-25T12:37:26;1.52;;;0.40;;
55915;SDS011;41826;53.246;-6.670;2022-07-25T12:39:52;1.02;;;0.40;;
55915;SDS011;41826;53.246;-6.670;2022-07-25T12:42:18;0.98;;;0.50;;
55915;SDS011;41826;53.246;-6.670;2022-07-25T12:44:43;1.40;;;0.32;;
55915;SDS011;41826;53.246;-6.670;2022-07-25T12:47:09;1.23;;;0.47;;
55915;SDS011;41826;53.246;-6.670;2022-07-25T12:49:34;2.85;;;0.68;;
55915;SDS011;41826;53.246;-6.670;2022-07-25T12:52:00;1.10;;;0.40;;
55915;SDS011;41826;53.246;-6.670;2022-07-25T12:54:25;2.90;;;0.47;;
55915;SDS011;41826;53.246;-6.670;2022-07-25T12:56:51;1.08;;;0.40;;
55915;SDS011;41826;53.246;-6.670;2022-07-25T12:59:16;2.83;;;0.88;;
55915;SDS011;41826;53.246;-6.670;2022-07-25T13:01:42;4.75;;;0.55;;
55915;SDS011;41826;53.246;-6.670;2022-07-25T13:04:07;2.38;;;0.57;;
55915;SDS011;41826;53.246;-6.670;2022-07-25T13:06:34;0.95;;;0.40;;
55915;SDS011;41826;53.246;-6.670;2022-07-25T13:09:00;3.67;;;0.50;;
55915;SDS011;41826;53.246;-6.670;2022-07-25T13:11:25;2.28;;;0.55;;
55915;SDS011;41826;53.246;-6.670;2022-07-25T13:13:51;1.10;;;0.40;;
55915;SDS011;41826;53.246;-6.670;2022-07-25T13:16:16;2.13;;;0.50;;
55915;SDS011;41826;53.246;-6.670;2022-07-25T13:18:42;0.60;;;0.30;;
55915;SDS011;41826;53.246;-6.670;2022-07-25T13:21:08;0.90;;;0.60;;
55915;SDS011;41826;53.246;-6.670;2022-07-25T13:23:34;1.30;;;0.40;;
55915;SDS011;41826;53.246;-6.670;2022-07-25T13:26:00;1.38;;;0.50;;
55915;SDS011;41826;53.246;-6.670;2022-07-25T13:28:25;4.95;;;0.47;;
55915;SDS011;41826;53.246;-6.670;2022-07-25T13:30:51;2.35;;;0.50;;
55915;SDS011;41826;53.246;-6.670;2022-07-25T13:33:16;1.35;;;0.50;;
55915;SDS011;41826;53.246;-6.670;2022-07-25T13:35:42;1.63;;;0.68;;
55915;SDS011;41826;53.246;-6.670;2022-07-25T13:38:08;2.22;;;0.60;;
55915;SDS011;41826;53.246;-6.670;2022-07-25T13:40:35;1.95;;;0.30;;
55915;SDS011;41826;53.246;-6.670;2022-07-25T13:43:04;3.03;;;0.55;;
55915;SDS011;41826;53.246;-6.670;2022-07-25T13:45:30;1.90;;;0.60;;
55915;SDS011;41826;53.246;-6.670;2022-07-25T13:47:55;6.43;;;0.93;;
55915;SDS011;41826;53.246;-6.670;2022-07-25T13:50:21;2.38;;;0.75;;
55915;SDS011;41826;53.246;-6.670;2022-07-25T13:52:46;2.72;;;0.50;;
55915;SDS011;41826;53.246;-6.670;2022-07-25T13:55:12;1.90;;;0.50;;
55915;SDS011;41826;53.246;-6.670;2022-07-25T13:57:38;1.65;;;0.60;;
55915;SDS011;41826;53.246;-6.670;2022-07-25T14:00:03;1.73;;;0.40;;
55915;SDS011;41826;53.246;-6.670;2022-07-25T14:02:30;2.75;;;0.40;;
55915;SDS011;41826;53.246;-6.670;2022-07-25T14:04:56;1.73;;;0.40;;
55915;SDS011;41826;53.246;-6.670;2022-07-25T14:07:21;1.42;;;0.50;;
55915;SDS011;41826;53.246;-6.670;2022-07-25T14:09:47;0.40;;;0.28;;
55915;SDS011;41826;53.246;-6.670;2022-07-25T14:12:12;1.95;;;0.40;;
55915;SDS011;41826;53.246;-6.670;2022-07-25T14:14:40;1.80;;;0.50;;
55915;SDS011;41826;53.246;-6.670;2022-07-25T14:17:06;3.65;;;0.57;;
55915;SDS011;41826;53.246;-6.670;2022-07-25T14:19:35;2.67;;;0.70;;
55915;SDS011;41826;53.246;-6.670;2022-07-25T14:22:01;2.47;;;0.43;;
55915;SDS011;41826;53.246;-6.670;2022-07-25T14:24:26;1.42;;;0.40;;
55915;SDS011;41826;53.246;-6.670;2022-07-25T14:26:52;1.38;;;0.30;;
55915;SDS011;41826;53.246;-6.670;2022-07-25T14:29:19;2.35;;;0.47;;
55915;SDS011;41826;53.246;-6.670;2022-07-25T14:31:44;5.03;;;0.40;;
55915;SDS011;41826;53.246;-6.670;2022-07-25T14:34:10;1.48;;;0.40;;
55915;SDS011;41826;53.246;-6.670;2022-07-25T14:36:36;1.02;;;0.40;;
55915;SDS011;41826;53.246;-6.670;2022-07-25T14:39:02;1.25;;;0.30;;
55915;SDS011;41826;53.246;-6.670;2022-07-25T14:41:28;1.25;;;0.40;;
55915;SDS011;41826;53.246;-6.670;2022-07-25T14:43:54;0.57;;;0.30;;
55915;SDS011;41826;53.246;-6.670;2022-07-25T14:46:19;2.50;;;0.43;;
55915;SDS011;41826;53.246;-6.670;2022-07-25T14:48:45;1.75;;;0.47;;